createdAt,value
2018-02-04T00:01:10.118Z,24.00
2018-02-04T00:03:38.384Z,24.20
2018-02-04T00:06:06.982Z,25.37
2018-02-04T00:08:34.406Z,25.00
2018-02-04T00:11:01.829Z,23.83
2018-02-04T00:13:29.390Z,25.27
2018-02-04T00:15:56.821Z,23.60
2018-02-04T00:18:24.255Z,24.57
2018-02-04T00:20:51.683Z,32.27
2018-02-04T00:23:19.249Z,27.80
2018-02-04T00:25:46.670Z,28.33
2018-02-04T00:28:14.102Z,29.53
2018-02-04T00:30:41.519Z,26.27
2018-02-04T00:33:08.949Z,35.40
2018-02-04T00:35:36.407Z,35.00
2018-02-04T00:38:03.984Z,29.40
2018-02-04T00:40:31.737Z,26.50
2018-02-04T00:43:00.687Z,33.78
2018-02-04T00:45:28.118Z,56.90
2018-02-04T00:47:55.602Z,48.70
2018-02-04T00:50:23.365Z,33.07
2018-02-04T00:52:51.442Z,33.37
2018-02-04T00:55:18.877Z,30.10
2018-02-04T00:57:46.285Z,37.00
2018-02-04T01:00:13.833Z,55.58
2018-02-04T01:02:41.579Z,48.43
2018-02-04T01:05:09.065Z,45.28
2018-02-04T01:07:36.540Z,40.40
2018-02-04T01:10:03.969Z,63.43
2018-02-04T01:12:31.717Z,77.37
2018-02-04T01:14:59.210Z,52.90
2018-02-04T01:17:27.470Z,46.77
2018-02-04T01:19:54.965Z,31.77
2018-02-04T01:22:22.381Z,33.17
2018-02-04T01:24:49.809Z,32.00
2018-02-04T01:27:17.221Z,27.10
2018-02-04T01:29:44.801Z,31.98
2018-02-04T01:32:12.218Z,33.60
2018-02-04T01:34:39.651Z,29.03
2018-02-04T01:37:07.155Z,30.50
2018-02-04T01:39:34.699Z,32.67
2018-02-04T01:42:02.117Z,30.33
2018-02-04T01:44:29.583Z,36.27
2018-02-04T01:46:57.165Z,33.30
2018-02-04T01:49:24.810Z,38.13
2018-02-04T01:51:52.517Z,33.87
2018-02-04T01:54:19.975Z,34.63
2018-02-04T01:56:47.438Z,40.87
2018-02-04T01:59:15.738Z,42.40
2018-02-04T02:01:43.410Z,39.37
2018-02-04T02:04:11.003Z,29.20
2018-02-04T02:06:38.601Z,35.13
2018-02-04T02:09:05.968Z,27.08
2018-02-04T02:11:33.417Z,33.90
2018-02-04T02:14:00.845Z,34.57
2018-02-04T02:16:28.285Z,33.95
2018-02-04T02:18:55.766Z,39.57
2018-02-04T02:21:23.200Z,36.10
2018-02-04T02:23:50.735Z,32.65
2018-02-04T02:26:18.161Z,38.67
2018-02-04T02:28:45.586Z,41.90
2018-02-04T02:31:13.017Z,38.43
2018-02-04T02:33:40.476Z,39.43
2018-02-04T02:36:07.895Z,41.72
2018-02-04T02:38:35.473Z,38.83
2018-02-04T02:41:05.755Z,42.47
2018-02-04T02:43:33.400Z,34.50
2018-02-04T02:46:00.962Z,34.50
2018-02-04T02:48:28.786Z,39.85
2018-02-04T02:50:56.386Z,32.67
2018-02-04T02:53:24.333Z,37.77
2018-02-04T02:55:51.759Z,31.80
2018-02-04T02:58:19.169Z,37.33
2018-02-04T03:00:46.671Z,33.30
2018-02-04T03:03:14.077Z,29.80
2018-02-04T03:05:41.526Z,35.63
2018-02-04T03:08:09.059Z,33.20
2018-02-04T03:10:36.482Z,28.50
2018-02-04T03:13:05.070Z,35.95
2018-02-04T03:15:32.576Z,30.17
2018-02-04T03:18:00.037Z,31.30
2018-02-04T03:20:27.461Z,33.97
2018-02-04T03:22:54.949Z,27.17
2018-02-04T03:25:22.494Z,32.03
2018-02-04T03:27:50.173Z,35.78
2018-02-04T03:30:17.930Z,29.20
2018-02-04T03:32:45.413Z,30.77
2018-02-04T03:35:12.832Z,35.87
2018-02-04T03:37:40.263Z,33.57
2018-02-04T03:40:07.767Z,30.53
2018-02-04T03:42:35.506Z,32.63
2018-02-04T03:45:03.138Z,25.80
2018-02-04T03:47:33.313Z,29.37
2018-02-04T03:50:00.732Z,30.92
2018-02-04T03:52:28.380Z,33.93
2018-02-04T03:54:55.803Z,29.70
2018-02-04T03:57:23.375Z,30.23
2018-02-04T03:59:50.829Z,30.83
2018-02-04T04:02:18.273Z,34.27
2018-02-04T04:04:45.711Z,27.70
2018-02-04T04:07:13.246Z,31.23
2018-02-04T04:09:40.662Z,34.03
2018-02-04T04:12:08.117Z,29.50
2018-02-04T04:14:35.536Z,26.60
2018-02-04T04:17:04.050Z,30.20
2018-02-04T04:19:31.709Z,28.67
2018-02-04T04:21:59.134Z,30.60
2018-02-04T04:24:26.545Z,28.73
2018-02-04T04:26:53.974Z,31.40
2018-02-04T04:29:21.608Z,30.50
2018-02-04T04:31:49.022Z,26.87
2018-02-04T04:34:16.456Z,26.17
2018-02-04T04:36:44.530Z,27.57
2018-02-04T04:39:11.963Z,29.33
2018-02-04T04:41:39.387Z,25.47
2018-02-04T04:44:07.861Z,29.67
2018-02-04T04:46:35.282Z,24.07
2018-02-04T04:49:02.749Z,23.30
2018-02-04T04:51:30.171Z,27.30
2018-02-04T04:53:57.631Z,27.80
2018-02-04T04:56:25.922Z,28.98
2018-02-04T04:58:53.360Z,28.02
2018-02-04T05:01:20.924Z,32.67
2018-02-04T05:03:48.292Z,32.00
2018-02-04T05:06:15.707Z,33.20
2018-02-04T05:08:43.135Z,33.15
2018-02-04T05:11:10.757Z,36.27
2018-02-04T05:13:39.084Z,35.80
2018-02-04T05:16:06.492Z,37.50
2018-02-04T05:18:34.140Z,40.40
2018-02-04T05:21:01.547Z,43.47
2018-02-04T05:23:28.990Z,46.13
2018-02-04T05:25:56.720Z,48.80
2018-02-04T05:28:24.142Z,48.67
2018-02-04T05:30:51.994Z,37.30
2018-02-04T05:33:20.636Z,41.63
2018-02-04T05:35:48.054Z,44.77
2018-02-04T05:38:15.488Z,44.93
2018-02-04T05:40:42.903Z,38.63
2018-02-04T05:43:10.457Z,41.27
2018-02-04T05:45:39.671Z,39.93
2018-02-04T05:48:07.103Z,32.37
2018-02-04T05:50:34.565Z,30.53
2018-02-04T05:53:01.999Z,30.80
2018-02-04T05:55:29.618Z,30.30
2018-02-04T05:57:57.062Z,25.70
2018-02-04T06:00:24.473Z,24.33
2018-02-04T06:02:52.006Z,25.97
2018-02-04T06:05:19.426Z,29.67
2018-02-04T06:07:46.837Z,28.93
2018-02-04T06:10:14.338Z,25.70
2018-02-04T06:12:41.849Z,25.10
2018-02-04T06:15:09.265Z,26.83
2018-02-04T06:17:36.687Z,29.27
2018-02-04T06:20:04.208Z,27.97
2018-02-04T06:22:31.615Z,25.35
2018-02-04T06:24:59.122Z,24.63
2018-02-04T06:27:27.114Z,29.13
2018-02-04T06:29:54.542Z,24.37
2018-02-04T06:32:22.070Z,18.20
2018-02-04T06:34:51.256Z,24.03
2018-02-04T06:37:18.833Z,25.90
2018-02-04T06:39:46.285Z,27.67
2018-02-04T06:42:13.706Z,28.10
2018-02-04T06:44:43.013Z,24.43
2018-02-04T06:47:10.430Z,27.43
2018-02-04T06:49:37.993Z,26.87
2018-02-04T06:52:05.425Z,27.47
2018-02-04T06:54:33.148Z,34.13
2018-02-04T06:57:00.569Z,25.17
2018-02-04T06:59:28.002Z,23.93
2018-02-04T07:01:55.411Z,23.35
2018-02-04T07:04:22.847Z,22.93
2018-02-04T07:06:50.266Z,20.73
2018-02-04T07:09:17.836Z,27.17
2018-02-04T07:11:45.695Z,23.87
2018-02-04T07:14:14.126Z,24.45
2018-02-04T07:16:41.562Z,25.30
2018-02-04T07:19:11.206Z,25.13
2018-02-04T07:21:38.967Z,21.40
2018-02-04T07:24:06.669Z,21.58
2018-02-04T07:26:34.130Z,23.60
2018-02-04T07:29:01.897Z,24.85
2018-02-04T07:31:29.309Z,24.63
2018-02-04T07:33:57.109Z,23.95
2018-02-04T07:36:25.357Z,23.80
2018-02-04T07:38:52.764Z,21.13
2018-02-04T07:41:20.188Z,18.58
2018-02-04T07:43:47.588Z,19.40
2018-02-04T07:46:15.497Z,21.77
2018-02-04T07:48:42.910Z,20.60
2018-02-04T07:51:10.303Z,23.90
2018-02-04T07:53:37.708Z,16.98
2018-02-04T07:56:05.120Z,19.10
2018-02-04T07:58:32.545Z,22.30
2018-02-04T08:00:59.961Z,17.90
2018-02-04T08:03:27.361Z,19.37
2018-02-04T08:05:54.780Z,18.50
2018-02-04T08:08:22.197Z,18.55
2018-02-04T08:10:49.620Z,16.27
2018-02-04T08:13:17.022Z,18.90
2018-02-04T08:15:44.503Z,17.40
2018-02-04T08:18:11.867Z,19.73
2018-02-04T08:20:39.288Z,20.50
2018-02-04T08:23:06.697Z,19.47
2018-02-04T08:25:34.108Z,22.80
2018-02-04T08:28:01.523Z,17.73
2018-02-04T08:30:28.937Z,18.73
2018-02-04T08:32:56.350Z,18.17
2018-02-04T08:35:23.766Z,18.70
2018-02-04T08:37:51.177Z,17.23
2018-02-04T08:46:24.906Z,18.90
2018-02-04T08:48:52.376Z,16.62
2018-02-04T08:51:19.760Z,15.77
2018-02-04T08:53:47.161Z,14.80
2018-02-04T08:56:14.569Z,12.53
2018-02-04T08:58:41.983Z,14.90
2018-02-04T09:01:09.386Z,21.60
2018-02-04T09:06:35.266Z,26.35
2018-02-04T09:09:02.686Z,27.20
2018-02-04T09:11:30.128Z,25.20
2018-02-04T09:13:57.589Z,29.60
2018-02-04T09:16:24.992Z,36.20
2018-02-04T09:18:52.424Z,23.23
2018-02-04T09:21:20.152Z,23.25
2018-02-04T09:23:47.575Z,20.70
2018-02-04T09:26:15.019Z,18.40
2018-02-04T09:28:42.429Z,19.87
2018-02-04T09:31:10.538Z,20.60
2018-02-04T09:33:37.918Z,23.30
2018-02-04T09:36:05.324Z,21.30
2018-02-04T09:38:33.277Z,20.05
2018-02-04T09:41:02.524Z,27.30
2018-02-04T09:43:29.947Z,24.07
2018-02-04T09:45:57.354Z,19.67
2018-02-04T09:48:25.051Z,33.63
2018-02-04T09:50:52.466Z,28.00
2018-02-04T09:53:19.919Z,22.10
2018-02-04T09:55:47.312Z,20.80
2018-02-04T09:58:14.740Z,22.03
2018-02-04T10:00:42.194Z,22.00
2018-02-04T10:03:09.621Z,21.10
2018-02-04T10:05:37.248Z,19.33
2018-02-04T10:08:11.106Z,16.93
2018-02-04T10:10:39.136Z,18.17
2018-02-04T10:13:06.569Z,19.70
2018-02-04T10:15:35.696Z,19.20
2018-02-04T10:18:03.131Z,20.05
2018-02-04T10:20:30.902Z,17.90
2018-02-04T10:22:58.496Z,18.98
2018-02-04T10:25:25.935Z,17.53
2018-02-04T10:27:53.622Z,14.80
2018-02-04T10:30:21.584Z,16.87
2018-02-04T10:32:49.046Z,15.33
2018-02-04T10:35:16.852Z,19.57
2018-02-04T10:37:45.628Z,14.30
2018-02-04T10:40:13.403Z,18.30
2018-02-04T10:42:40.838Z,19.33
2018-02-04T10:45:08.651Z,18.83
2018-02-04T10:47:36.410Z,19.12
2018-02-04T10:50:03.971Z,18.33
2018-02-04T10:52:32.886Z,15.82
2018-02-04T10:55:00.361Z,16.12
2018-02-04T10:57:27.770Z,17.60
2018-02-04T10:59:55.206Z,19.80
2018-02-04T11:02:23.336Z,13.98
2018-02-04T11:04:50.760Z,11.30
2018-02-04T11:07:18.953Z,18.13
2018-02-04T11:09:46.374Z,14.40
2018-02-04T11:12:13.774Z,13.43
2018-02-04T11:14:41.193Z,11.83
2018-02-04T11:17:08.593Z,11.50
2018-02-04T11:19:36.153Z,19.13
2018-02-04T11:22:04.541Z,12.93
2018-02-04T11:24:31.958Z,12.40
2018-02-04T11:26:59.353Z,9.27
2018-02-04T11:29:26.784Z,10.90
2018-02-04T11:31:54.196Z,10.60
2018-02-04T11:34:21.609Z,7.33
2018-02-04T11:36:49.986Z,11.30
2018-02-04T11:39:17.375Z,9.43
2018-02-04T11:41:44.812Z,6.77
2018-02-04T11:44:12.204Z,7.65
2018-02-04T11:46:39.636Z,9.90
2018-02-04T11:49:07.008Z,8.87
2018-02-04T11:51:34.472Z,9.15
2018-02-04T11:54:01.869Z,10.00
2018-02-04T11:56:29.272Z,6.70
2018-02-04T11:58:56.676Z,11.80
2018-02-04T12:01:24.877Z,15.95
2018-02-04T12:03:52.282Z,10.10
2018-02-04T12:06:19.685Z,9.90
2018-02-04T12:08:47.089Z,10.07
2018-02-04T12:11:14.493Z,10.30
2018-02-04T12:13:41.905Z,16.07
2018-02-04T12:16:09.317Z,11.85
2018-02-04T12:18:37.424Z,5.87
2018-02-04T12:21:04.911Z,23.97
2018-02-04T12:23:32.292Z,3.65
2018-02-04T12:25:59.689Z,5.90
2018-02-04T12:28:27.090Z,9.30
2018-02-04T12:30:54.494Z,7.20
2018-02-04T12:33:21.896Z,7.30
2018-02-04T12:35:49.376Z,5.10
2018-02-04T12:38:17.592Z,3.70
2018-02-04T12:40:44.993Z,5.07
2018-02-04T12:43:12.812Z,4.57
2018-02-04T12:45:40.240Z,4.87
2018-02-04T12:48:07.632Z,4.90
2018-02-04T12:50:35.045Z,4.90
2018-02-04T12:53:02.497Z,5.97
2018-02-04T12:55:29.933Z,4.80
2018-02-04T12:57:57.340Z,5.35
2018-02-04T13:00:24.745Z,4.40
2018-02-04T13:02:52.140Z,5.30
2018-02-04T13:05:19.564Z,4.53
2018-02-04T13:07:46.977Z,7.27
2018-02-04T13:10:14.374Z,7.63
2018-02-04T13:12:41.866Z,6.30
2018-02-04T13:15:09.268Z,5.43
2018-02-04T13:17:36.890Z,6.15
2018-02-04T13:20:04.288Z,7.27
2018-02-04T13:22:31.688Z,8.17
2018-02-04T13:24:59.084Z,7.72
2018-02-04T13:27:27.344Z,8.50
2018-02-04T13:29:54.801Z,6.63
2018-02-04T13:32:22.214Z,8.10
2018-02-04T13:34:49.622Z,8.30
2018-02-04T13:37:17.029Z,10.00
2018-02-04T13:39:44.433Z,9.43
2018-02-04T13:42:11.844Z,10.03
2018-02-04T13:44:39.244Z,9.60
2018-02-04T13:47:06.684Z,11.90
2018-02-04T13:49:34.486Z,8.20
2018-02-04T13:52:01.923Z,5.82
2018-02-04T13:54:30.117Z,6.53
2018-02-04T13:56:58.296Z,7.45
2018-02-04T13:59:25.714Z,12.83
2018-02-04T14:01:53.140Z,10.33
2018-02-04T14:04:20.532Z,6.53
2018-02-04T14:06:48.004Z,8.03
2018-02-04T14:09:15.414Z,10.13
2018-02-04T14:11:42.812Z,8.40
2018-02-04T14:14:10.217Z,10.30
2018-02-04T14:16:37.833Z,9.87
2018-02-04T14:19:05.313Z,10.30
2018-02-04T14:21:32.712Z,10.60
2018-02-04T14:24:00.141Z,13.20
2018-02-04T14:26:27.536Z,13.47
2018-02-04T14:28:55.010Z,10.10
2018-02-04T14:31:22.421Z,13.70
2018-02-04T14:33:49.913Z,12.37
2018-02-04T14:36:17.314Z,13.55
2018-02-04T14:38:44.723Z,10.20
2018-02-04T14:41:12.238Z,10.40
2018-02-04T14:43:39.604Z,9.20
2018-02-04T14:46:07.048Z,13.60
2018-02-04T14:48:34.542Z,7.70
2018-02-04T14:51:01.932Z,12.00
2018-02-04T14:53:30.147Z,6.85
2018-02-04T14:55:57.537Z,6.27
2018-02-04T14:58:25.311Z,9.05
2018-02-04T15:00:52.697Z,8.90
2018-02-04T15:03:20.105Z,9.30
2018-02-04T15:05:47.526Z,8.50
2018-02-04T15:08:15.023Z,11.10
2018-02-04T15:10:42.873Z,12.52
2018-02-04T15:13:10.260Z,15.90
2018-02-04T15:15:37.707Z,12.03
2018-02-04T15:18:05.125Z,10.93
2018-02-04T15:20:32.536Z,9.03
2018-02-04T15:23:00.957Z,10.25
2018-02-04T15:25:29.262Z,10.53
2018-02-04T15:27:56.653Z,10.90
2018-02-04T15:30:24.080Z,9.93
2018-02-04T15:32:51.482Z,13.63
2018-02-04T15:35:18.902Z,15.57
2018-02-04T15:37:46.299Z,22.30
2018-02-04T15:40:13.716Z,16.73
2018-02-04T15:42:41.129Z,15.77
2018-02-04T15:45:08.577Z,28.12
2018-02-04T15:47:36.692Z,22.00
2018-02-04T15:50:05.096Z,13.90
2018-02-04T15:52:32.499Z,26.53
2018-02-04T15:54:59.913Z,15.25
2018-02-04T15:57:29.126Z,21.13
2018-02-04T15:59:56.490Z,19.90
2018-02-04T16:02:23.908Z,18.40
2018-02-04T16:04:51.320Z,16.50
2018-02-04T16:07:18.727Z,13.77
2018-02-04T16:09:46.146Z,21.10
2018-02-04T16:12:13.549Z,17.77
2018-02-04T16:14:40.981Z,16.70
2018-02-04T16:17:08.377Z,19.33
2018-02-04T16:19:35.800Z,15.77
2018-02-04T16:22:04.120Z,15.23
2018-02-04T16:24:31.524Z,19.80
2018-02-04T16:26:59.064Z,17.17
2018-02-04T16:29:26.471Z,29.80
2018-02-04T16:31:53.973Z,17.03
2018-02-04T16:34:21.378Z,22.30
2018-02-04T16:36:48.792Z,20.60
2018-02-04T16:39:16.197Z,20.23
2018-02-04T16:41:43.654Z,15.60
2018-02-04T16:44:11.120Z,23.77
2018-02-04T16:46:38.542Z,28.23
2018-02-04T16:49:06.024Z,20.97
2018-02-04T16:51:33.980Z,26.08
2018-02-04T16:54:01.407Z,23.87
2018-02-04T16:56:31.675Z,19.63
2018-02-04T16:58:59.145Z,16.23
2018-02-04T17:01:26.576Z,26.90
2018-02-04T17:03:53.974Z,19.87
2018-02-04T17:06:21.389Z,22.27
2018-02-04T17:08:48.854Z,20.30
2018-02-04T17:11:16.309Z,30.73
2018-02-04T17:13:44.628Z,35.87
2018-02-04T17:16:12.198Z,21.77
2018-02-04T17:18:39.656Z,18.90
2018-02-04T17:21:07.134Z,21.90
2018-02-04T17:23:35.194Z,25.60
2018-02-04T17:26:02.671Z,29.03
2018-02-04T17:28:30.097Z,29.37
2018-02-04T17:30:57.547Z,31.95
2018-02-04T17:33:24.941Z,31.43
2018-02-04T17:35:52.357Z,37.40
2018-02-04T17:38:19.764Z,28.90
2018-02-04T17:40:47.228Z,28.83
2018-02-04T17:43:14.628Z,36.53
2018-02-04T17:45:42.035Z,30.23
2018-02-04T17:48:09.508Z,28.20
2018-02-04T17:50:36.920Z,30.08
2018-02-04T17:53:04.347Z,30.60
2018-02-04T17:55:31.822Z,35.00
2018-02-04T17:57:59.270Z,38.63
2018-02-04T18:00:26.671Z,36.90
2018-02-04T18:02:54.076Z,28.87
2018-02-04T18:05:22.233Z,33.72
2018-02-04T18:07:49.726Z,38.97
2018-02-04T18:10:17.400Z,39.13
2018-02-04T18:12:44.870Z,33.28
2018-02-04T18:15:12.370Z,40.47
2018-02-04T18:17:39.800Z,24.40
2018-02-04T18:20:07.188Z,30.53
2018-02-04T18:22:34.619Z,34.23
2018-02-04T18:25:02.020Z,27.93
2018-02-04T18:27:29.439Z,30.10
2018-02-04T18:29:56.840Z,28.80
2018-02-04T18:32:24.298Z,29.93
2018-02-04T18:34:51.742Z,30.92
2018-02-04T18:37:19.145Z,24.57
2018-02-04T18:39:47.469Z,41.73
2018-02-04T18:42:14.925Z,42.22
2018-02-04T18:44:42.324Z,42.27
2018-02-04T18:47:09.794Z,37.23
2018-02-04T18:49:37.184Z,40.20
2018-02-04T18:52:04.592Z,36.90
2018-02-04T18:54:32.990Z,32.70
2018-02-04T18:57:00.393Z,33.85
2018-02-04T18:59:27.878Z,35.73
2018-02-04T19:01:55.293Z,32.27
2018-02-04T19:04:22.723Z,33.78
2018-02-04T19:06:50.135Z,30.50
2018-02-04T19:09:17.559Z,30.73
2018-02-04T19:11:45.004Z,32.63
2018-02-04T19:14:12.409Z,25.20
2018-02-04T19:16:39.816Z,24.73
2018-02-04T19:19:07.224Z,22.83
2018-02-04T19:21:34.982Z,23.20
2018-02-04T19:24:02.450Z,21.63
2018-02-04T19:26:29.837Z,26.17
2018-02-04T19:28:57.371Z,22.37
2018-02-04T19:31:24.812Z,24.90
2018-02-04T19:33:52.230Z,25.65
2018-02-04T19:36:19.676Z,24.53
2018-02-04T19:38:47.136Z,25.17
2018-02-04T19:41:14.528Z,34.37
2018-02-04T19:43:41.940Z,35.27
2018-02-04T19:46:09.388Z,41.50
2018-02-04T19:48:36.785Z,37.47
2018-02-04T19:51:04.246Z,37.70
2018-02-04T19:53:31.657Z,45.03
2018-02-04T19:55:59.056Z,36.13
2018-02-04T19:58:26.516Z,31.03
2018-02-04T20:00:53.908Z,33.95
2018-02-04T20:03:21.364Z,30.30
2018-02-04T20:05:48.776Z,34.80
2018-02-04T20:08:16.172Z,35.37
2018-02-04T20:10:43.588Z,35.77
2018-02-04T20:13:11.582Z,32.72
2018-02-04T20:15:39.049Z,39.87
2018-02-04T20:18:06.507Z,35.17
2018-02-04T20:20:33.964Z,29.97
2018-02-04T20:23:01.412Z,32.53
2018-02-04T20:25:28.836Z,31.63
2018-02-04T20:27:56.237Z,33.50
2018-02-04T20:30:23.694Z,32.90
2018-02-04T20:33:06.500Z,28.90
2018-02-04T20:35:44.797Z,36.55
2018-02-04T20:38:12.457Z,31.02
2018-02-04T20:40:39.923Z,28.07
2018-02-04T20:43:07.367Z,28.90
2018-02-04T20:45:34.820Z,30.77
2018-02-04T20:48:02.227Z,33.33
2018-02-04T20:50:29.684Z,26.30
2018-02-04T20:52:57.090Z,26.62
2018-02-04T20:55:24.539Z,25.03
2018-02-04T20:57:51.913Z,27.20
2018-02-04T21:00:19.384Z,19.33
2018-02-04T21:02:46.781Z,23.60
2018-02-04T21:05:14.192Z,23.70
2018-02-04T21:07:41.596Z,26.13
2018-02-04T21:10:09.005Z,27.08
2018-02-04T21:12:36.473Z,28.40
2018-02-04T21:15:03.879Z,26.57
2018-02-04T21:17:31.322Z,26.55
2018-02-04T21:19:58.728Z,36.07
2018-02-04T21:22:26.134Z,27.80
2018-02-04T21:24:53.596Z,26.98
2018-02-04T21:27:21.001Z,34.00
2018-02-04T21:29:48.404Z,28.77
2018-02-04T21:32:15.868Z,28.33
2018-02-04T21:34:43.265Z,34.20
2018-02-04T21:37:10.676Z,32.07
2018-02-04T21:39:38.125Z,32.67
2018-02-04T21:42:05.537Z,34.10
2018-02-04T21:44:32.950Z,29.50
2018-02-04T21:47:00.410Z,31.13
2018-02-04T21:49:27.860Z,40.30
2018-02-04T21:51:55.257Z,33.63
2018-02-04T21:54:23.270Z,32.80
2018-02-04T21:56:50.714Z,31.93
2018-02-04T22:02:41.819Z,33.30
2018-02-04T22:05:09.217Z,33.50
2018-02-04T22:07:36.640Z,29.75
2018-02-04T22:10:04.059Z,27.23
2018-02-04T22:12:31.465Z,27.47
2018-02-04T22:14:58.876Z,34.93
2018-02-04T22:17:26.288Z,38.23
2018-02-04T22:19:53.696Z,35.37
2018-02-04T22:22:21.108Z,39.90
2018-02-04T22:24:48.525Z,39.92
2018-02-04T22:27:15.937Z,40.73
2018-02-04T22:29:43.347Z,39.03
2018-02-04T22:32:10.772Z,36.42
2018-02-04T22:34:38.192Z,38.73
2018-02-04T22:37:05.608Z,37.90
2018-02-04T22:39:33.323Z,36.40
2018-02-04T22:42:00.740Z,38.87
2018-02-04T22:44:28.148Z,37.10
2018-02-04T22:46:55.569Z,36.50
2018-02-04T22:49:23.348Z,36.07
2018-02-04T22:51:50.769Z,42.25
2018-02-04T22:54:19.134Z,43.25
2018-02-04T22:56:46.503Z,37.37
2018-02-04T22:59:13.913Z,38.13
2018-02-04T23:01:41.328Z,36.83
2018-02-04T23:04:08.734Z,38.20
2018-02-04T23:06:36.148Z,41.70
2018-02-04T23:09:03.557Z,41.57
2018-02-04T23:11:30.973Z,37.20
2018-02-04T23:13:58.384Z,39.57
2018-02-04T23:16:25.788Z,37.63
2018-02-04T23:18:53.214Z,34.00
2018-02-04T23:21:20.613Z,32.57
2018-02-04T23:23:48.028Z,40.07
2018-02-04T23:26:15.436Z,37.15
2018-02-04T23:28:42.849Z,36.60
2018-02-04T23:31:10.257Z,37.57
2018-02-04T23:33:37.671Z,38.30
2018-02-04T23:36:05.088Z,38.87
2018-02-04T23:38:32.509Z,36.07
2018-02-04T23:40:59.925Z,37.37
2018-02-04T23:43:27.337Z,36.67
2018-02-04T23:45:54.786Z,36.90
2018-02-04T23:48:22.163Z,41.53
2018-02-04T23:50:49.592Z,41.07
2018-02-04T23:53:17.009Z,42.50
2018-02-04T23:55:44.424Z,45.53
2018-02-04T23:58:11.841Z,48.95
